sensor_id;sensor_type;location;lat;lon;timestamp;temperature;humidity
12303;DHT22;6214;48.012;7.862;2023-03-25T00:00:09;12.80;99.90
12303;DHT22;6214;48.012;7.862;2023-03-25T00:02:42;12.70;99.90
12303;DHT22;6214;48.012;7.862;2023-03-25T00:05:12;12.70;99.90
12303;DHT22;6214;48.012;7.862;2023-03-25T00:07:42;12.70;99.90
12303;DHT22;6214;48.012;7.862;2023-03-25T00:10:11;12.60;99.90
12303;DHT22;6214;48.012;7.862;2023-03-25T00:12:38;12.50;99.90
12303;DHT22;6214;48.012;7.862;2023-03-25T00:15:07;12.60;99.90
12303;DHT22;6214;48.012;7.862;2023-03-25T00:17:34;12.60;99.90
12303;DHT22;6214;48.012;7.862;2023-03-25T00:20:04;12.60;99.90
12303;DHT22;6214;48.012;7.862;2023-03-25T00:22:34;12.50;99.90
12303;DHT22;6214;48.012;7.862;2023-03-25T00:25:11;12.50;99.90
12303;DHT22;6214;48.012;7.862;2023-03-25T00:27:42;12.40;99.90
12303;DHT22;6214;48.012;7.862;2023-03-25T00:30:16;12.40;99.90
12303;DHT22;6214;48.012;7.862;2023-03-25T00:32:44;12.40;99.90
12303;DHT22;6214;48.012;7.862;2023-03-25T00:35:16;12.50;99.90
12303;DHT22;6214;48.012;7.862;2023-03-25T00:37:50;12.40;99.90
12303;DHT22;6214;48.012;7.862;2023-03-25T00:40:26;12.40;99.90
12303;DHT22;6214;48.012;7.862;2023-03-25T00:43:01;12.30;99.90
12303;DHT22;6214;48.012;7.862;2023-03-25T00:45:29;12.40;99.90
12303;DHT22;6214;48.012;7.862;2023-03-25T00:47:56;12.40;99.90
12303;DHT22;6214;48.012;7.862;2023-03-25T00:50:23;12.50;99.90
12303;DHT22;6214;48.012;7.862;2023-03-25T00:52:50;12.50;99.90
12303;DHT22;6214;48.012;7.862;2023-03-25T00:55:19;12.30;99.90
12303;DHT22;6214;48.012;7.862;2023-03-25T00:57:46;12.00;99.90
12303;DHT22;6214;48.012;7.862;2023-03-25T01:00:16;11.90;99.90
12303;DHT22;6214;48.012;7.862;2023-03-25T01:02:43;11.80;99.90
12303;DHT22;6214;48.012;7.862;2023-03-25T01:05:11;11.70;99.90
12303;DHT22;6214;48.012;7.862;2023-03-25T01:07:39;11.70;99.90
12303;DHT22;6214;48.012;7.862;2023-03-25T01:10:07;11.50;99.90
12303;DHT22;6214;48.012;7.862;2023-03-25T01:12:34;11.50;99.90
12303;DHT22;6214;48.012;7.862;2023-03-25T01:15:01;11.40;99.90
12303;DHT22;6214;48.012;7.862;2023-03-25T01:17:28;11.40;99.90
12303;DHT22;6214;48.012;7.862;2023-03-25T01:19:55;11.30;99.90
12303;DHT22;6214;48.012;7.862;2023-03-25T01:22:22;11.10;99.90
12303;DHT22;6214;48.012;7.862;2023-03-25T01:24:49;11.20;99.90
12303;DHT22;6214;48.012;7.862;2023-03-25T01:27:16;11.30;99.90
12303;DHT22;6214;48.012;7.862;2023-03-25T01:29:43;11.30;99.90
12303;DHT22;6214;48.012;7.862;2023-03-25T01:32:10;11.40;99.90
12303;DHT22;6214;48.012;7.862;2023-03-25T01:34:37;11.60;99.90
12303;DHT22;6214;48.012;7.862;2023-03-25T01:37:05;11.60;99.90
12303;DHT22;6214;48.012;7.862;2023-03-25T01:39:33;11.70;99.90
12303;DHT22;6214;48.012;7.862;2023-03-25T01:42:00;11.80;99.90
12303;DHT22;6214;48.012;7.862;2023-03-25T01:46:55;11.80;99.90
12303;DHT22;6214;48.012;7.862;2023-03-25T01:49:31;11.80;99.90
12303;DHT22;6214;48.012;7.862;2023-03-25T01:52:03;11.90;99.90
12303;DHT22;6214;48.012;7.862;2023-03-25T01:54:31;12.00;99.90
12303;DHT22;6214;48.012;7.862;2023-03-25T01:56:59;12.00;99.90
12303;DHT22;6214;48.012;7.862;2023-03-25T01:59:27;12.10;99.90
12303;DHT22;6214;48.012;7.862;2023-03-25T02:01:57;12.10;99.90
12303;DHT22;6214;48.012;7.862;2023-03-25T02:04:36;11.90;99.90
12303;DHT22;6214;48.012;7.862;2023-03-25T02:07:07;11.30;99.90
12303;DHT22;6214;48.012;7.862;2023-03-25T02:09:34;10.90;99.90
12303;DHT22;6214;48.012;7.862;2023-03-25T02:12:02;10.70;99.90
12303;DHT22;6214;48.012;7.862;2023-03-25T02:14:32;10.40;99.90
12303;DHT22;6214;48.012;7.862;2023-03-25T02:17:30;10.40;99.90
12303;DHT22;6214;48.012;7.862;2023-03-25T02:28:51;9.80;99.90
12303;DHT22;6214;48.012;7.862;2023-03-25T02:45:17;10.10;99.90
12303;DHT22;6214;48.012;7.862;2023-03-25T02:47:53;10.00;99.90
12303;DHT22;6214;48.012;7.862;2023-03-25T02:50:32;10.00;99.90
12303;DHT22;6214;48.012;7.862;2023-03-25T02:53:03;9.90;99.90
12303;DHT22;6214;48.012;7.862;2023-03-25T02:55:34;9.90;99.90
12303;DHT22;6214;48.012;7.862;2023-03-25T02:58:06;9.90;99.90
12303;DHT22;6214;48.012;7.862;2023-03-25T03:00:35;9.80;99.90
12303;DHT22;6214;48.012;7.862;2023-03-25T03:03:05;9.90;99.90
12303;DHT22;6214;48.012;7.862;2023-03-25T03:05:35;9.90;99.90
12303;DHT22;6214;48.012;7.862;2023-03-25T03:25:31;9.70;99.90
12303;DHT22;6214;48.012;7.862;2023-03-25T03:30:52;9.80;99.90
12303;DHT22;6214;48.012;7.862;2023-03-25T03:33:34;9.70;99.90
12303;DHT22;6214;48.012;7.862;2023-03-25T03:36:13;9.80;99.90
12303;DHT22;6214;48.012;7.862;2023-03-25T03:38:59;9.90;99.90
12303;DHT22;6214;48.012;7.862;2023-03-25T03:41:28;9.80;99.90
12303;DHT22;6214;48.012;7.862;2023-03-25T03:44:11;9.90;99.90
12303;DHT22;6214;48.012;7.862;2023-03-25T03:47:21;9.80;99.90
12303;DHT22;6214;48.012;7.862;2023-03-25T03:49:42;9.80;99.90
12303;DHT22;6214;48.012;7.862;2023-03-25T03:52:32;9.80;99.90
12303;DHT22;6214;48.012;7.862;2023-03-25T03:55:10;9.70;99.90
12303;DHT22;6214;48.012;7.862;2023-03-25T03:57:44;9.90;99.90
12303;DHT22;6214;48.012;7.862;2023-03-25T04:00:17;9.90;99.90
12303;DHT22;6214;48.012;7.862;2023-03-25T04:03:04;9.80;99.90
12303;DHT22;6214;48.012;7.862;2023-03-25T04:05:35;10.00;99.90
12303;DHT22;6214;48.012;7.862;2023-03-25T04:08:08;10.00;99.90
12303;DHT22;6214;48.012;7.862;2023-03-25T04:10:53;10.20;99.90
12303;DHT22;6214;48.012;7.862;2023-03-25T04:13:29;10.10;99.90
12303;DHT22;6214;48.012;7.862;2023-03-25T04:15:58;10.10;99.90
12303;DHT22;6214;48.012;7.862;2023-03-25T04:18:26;10.00;99.90
12303;DHT22;6214;48.012;7.862;2023-03-25T04:20:54;10.00;99.90
12303;DHT22;6214;48.012;7.862;2023-03-25T04:23:21;10.10;99.90
12303;DHT22;6214;48.012;7.862;2023-03-25T04:25:48;10.10;99.90
12303;DHT22;6214;48.012;7.862;2023-03-25T04:28:19;10.00;99.90
12303;DHT22;6214;48.012;7.862;2023-03-25T04:30:46;9.90;99.90
12303;DHT22;6214;48.012;7.862;2023-03-25T04:33:14;9.90;99.90
12303;DHT22;6214;48.012;7.862;2023-03-25T04:35:41;9.80;99.90
12303;DHT22;6214;48.012;7.862;2023-03-25T04:38:08;9.80;99.90
12303;DHT22;6214;48.012;7.862;2023-03-25T04:40:35;10.00;99.90
12303;DHT22;6214;48.012;7.862;2023-03-25T04:43:06;10.00;99.90
12303;DHT22;6214;48.012;7.862;2023-03-25T04:45:33;10.00;99.90
12303;DHT22;6214;48.012;7.862;2023-03-25T04:48:02;10.00;99.90
12303;DHT22;6214;48.012;7.862;2023-03-25T04:50:32;10.00;99.90
12303;DHT22;6214;48.012;7.862;2023-03-25T04:52:59;9.90;99.90
12303;DHT22;6214;48.012;7.862;2023-03-25T04:55:27;9.80;99.90
12303;DHT22;6214;48.012;7.862;2023-03-25T04:57:55;9.70;99.90
12303;DHT22;6214;48.012;7.862;2023-03-25T05:00:23;9.70;99.90
12303;DHT22;6214;48.012;7.862;2023-03-25T05:02:52;9.80;99.90
12303;DHT22;6214;48.012;7.862;2023-03-25T05:05:24;9.70;99.90
12303;DHT22;6214;48.012;7.862;2023-03-25T05:07:53;9.70;99.90
12303;DHT22;6214;48.012;7.862;2023-03-25T05:10:24;9.70;99.90
12303;DHT22;6214;48.012;7.862;2023-03-25T05:12:59;9.60;99.90
12303;DHT22;6214;48.012;7.862;2023-03-25T05:15:27;9.50;99.90
12303;DHT22;6214;48.012;7.862;2023-03-25T05:17:55;9.60;99.90
12303;DHT22;6214;48.012;7.862;2023-03-25T05:20:23;9.60;99.90
12303;DHT22;6214;48.012;7.862;2023-03-25T05:22:50;9.60;99.90
12303;DHT22;6214;48.012;7.862;2023-03-25T05:25:19;9.60;99.90
12303;DHT22;6214;48.012;7.862;2023-03-25T05:27:48;9.60;99.90
12303;DHT22;6214;48.012;7.862;2023-03-25T05:30:15;9.60;99.90
12303;DHT22;6214;48.012;7.862;2023-03-25T05:32:42;9.50;99.90
12303;DHT22;6214;48.012;7.862;2023-03-25T05:35:11;9.60;99.90
12303;DHT22;6214;48.012;7.862;2023-03-25T05:37:38;9.50;99.90
12303;DHT22;6214;48.012;7.862;2023-03-25T05:40:06;9.50;99.90
12303;DHT22;6214;48.012;7.862;2023-03-25T05:42:41;9.70;99.90
12303;DHT22;6214;48.012;7.862;2023-03-25T05:45:13;10.60;99.90
12303;DHT22;6214;48.012;7.862;2023-03-25T05:47:42;9.80;99.90
12303;DHT22;6214;48.012;7.862;2023-03-25T05:50:10;9.80;99.90
12303;DHT22;6214;48.012;7.862;2023-03-25T05:52:37;9.90;99.90
12303;DHT22;6214;48.012;7.862;2023-03-25T05:55:12;9.80;99.90
12303;DHT22;6214;48.012;7.862;2023-03-25T05:57:40;9.80;99.90
12303;DHT22;6214;48.012;7.862;2023-03-25T06:00:07;9.80;99.90
12303;DHT22;6214;48.012;7.862;2023-03-25T06:02:34;9.80;99.90
12303;DHT22;6214;48.012;7.862;2023-03-25T06:05:05;9.80;99.90
12303;DHT22;6214;48.012;7.862;2023-03-25T06:07:33;9.80;99.90
12303;DHT22;6214;48.012;7.862;2023-03-25T06:10:00;10.00;99.90
12303;DHT22;6214;48.012;7.862;2023-03-25T06:12:27;10.00;99.90
12303;DHT22;6214;48.012;7.862;2023-03-25T06:14:55;10.10;99.90
12303;DHT22;6214;48.012;7.862;2023-03-25T06:17:22;10.20;99.90
12303;DHT22;6214;48.012;7.862;2023-03-25T06:19:50;10.10;99.90
12303;DHT22;6214;48.012;7.862;2023-03-25T06:22:17;10.20;99.90
12303;DHT22;6214;48.012;7.862;2023-03-25T06:24:47;10.30;99.90
12303;DHT22;6214;48.012;7.862;2023-03-25T06:27:16;10.30;99.90
12303;DHT22;6214;48.012;7.862;2023-03-25T06:29:44;10.20;99.90
12303;DHT22;6214;48.012;7.862;2023-03-25T06:32:12;10.40;99.90
12303;DHT22;6214;48.012;7.862;2023-03-25T06:34:40;10.60;99.90
12303;DHT22;6214;48.012;7.862;2023-03-25T06:37:09;10.70;99.90
12303;DHT22;6214;48.012;7.862;2023-03-25T06:39:36;10.70;99.90
12303;DHT22;6214;48.012;7.862;2023-03-25T06:42:04;10.80;99.90
12303;DHT22;6214;48.012;7.862;2023-03-25T06:44:32;11.10;99.90
12303;DHT22;6214;48.012;7.862;2023-03-25T06:46:59;11.10;99.90
12303;DHT22;6214;48.012;7.862;2023-03-25T06:49:28;11.20;99.90
12303;DHT22;6214;48.012;7.862;2023-03-25T06:51:55;11.10;99.90
12303;DHT22;6214;48.012;7.862;2023-03-25T06:54:22;11.10;99.90
12303;DHT22;6214;48.012;7.862;2023-03-25T06:56:49;11.20;99.90
12303;DHT22;6214;48.012;7.862;2023-03-25T06:59:16;12.10;99.90
12303;DHT22;6214;48.012;7.862;2023-03-25T07:01:43;11.40;99.90
12303;DHT22;6214;48.012;7.862;2023-03-25T07:04:10;11.40;99.90
12303;DHT22;6214;48.012;7.862;2023-03-25T07:06:37;11.40;99.90
12303;DHT22;6214;48.012;7.862;2023-03-25T07:09:04;11.40;99.90
12303;DHT22;6214;48.012;7.862;2023-03-25T07:11:32;11.50;99.90
12303;DHT22;6214;48.012;7.862;2023-03-25T07:13:59;11.50;99.90
12303;DHT22;6214;48.012;7.862;2023-03-25T07:16:26;11.40;99.90
12303;DHT22;6214;48.012;7.862;2023-03-25T07:18:54;11.50;99.90
12303;DHT22;6214;48.012;7.862;2023-03-25T07:21:22;11.40;99.90
12303;DHT22;6214;48.012;7.862;2023-03-25T07:23:50;11.70;99.90
12303;DHT22;6214;48.012;7.862;2023-03-25T07:26:17;11.80;99.90
12303;DHT22;6214;48.012;7.862;2023-03-25T07:28:44;11.90;99.90
12303;DHT22;6214;48.012;7.862;2023-03-25T07:31:14;11.80;99.90
12303;DHT22;6214;48.012;7.862;2023-03-25T07:33:42;11.90;99.90
12303;DHT22;6214;48.012;7.862;2023-03-25T07:36:10;11.90;99.90
12303;DHT22;6214;48.012;7.862;2023-03-25T07:38:38;12.00;99.90
12303;DHT22;6214;48.012;7.862;2023-03-25T07:41:06;11.90;99.90
12303;DHT22;6214;48.012;7.862;2023-03-25T07:43:33;11.80;99.90
12303;DHT22;6214;48.012;7.862;2023-03-25T07:46:01;11.80;99.90
12303;DHT22;6214;48.012;7.862;2023-03-25T07:48:28;11.70;99.90
12303;DHT22;6214;48.012;7.862;2023-03-25T07:50:55;11.60;99.90
12303;DHT22;6214;48.012;7.862;2023-03-25T07:53:22;11.60;99.90
12303;DHT22;6214;48.012;7.862;2023-03-25T07:55:49;11.50;99.90
12303;DHT22;6214;48.012;7.862;2023-03-25T07:58:18;11.30;99.90
12303;DHT22;6214;48.012;7.862;2023-03-25T08:00:45;11.00;99.90
12303;DHT22;6214;48.012;7.862;2023-03-25T08:03:13;10.90;99.90
12303;DHT22;6214;48.012;7.862;2023-03-25T08:05:47;11.00;99.90
12303;DHT22;6214;48.012;7.862;2023-03-25T08:08:15;10.90;99.90
12303;DHT22;6214;48.012;7.862;2023-03-25T08:10:43;11.00;99.90
12303;DHT22;6214;48.012;7.862;2023-03-25T08:13:10;11.00;99.90
12303;DHT22;6214;48.012;7.862;2023-03-25T08:15:38;10.90;99.90
12303;DHT22;6214;48.012;7.862;2023-03-25T08:18:05;11.10;99.90
12303;DHT22;6214;48.012;7.862;2023-03-25T08:20:33;11.30;99.90
12303;DHT22;6214;48.012;7.862;2023-03-25T08:23:00;11.90;99.90
12303;DHT22;6214;48.012;7.862;2023-03-25T08:25:29;12.40;99.90
12303;DHT22;6214;48.012;7.862;2023-03-25T08:27:56;12.50;99.90
12303;DHT22;6214;48.012;7.862;2023-03-25T08:30:23;12.60;99.90
12303;DHT22;6214;48.012;7.862;2023-03-25T08:32:50;12.90;99.90
12303;DHT22;6214;48.012;7.862;2023-03-25T08:35:22;13.20;99.90
12303;DHT22;6214;48.012;7.862;2023-03-25T08:37:50;13.10;99.90
12303;DHT22;6214;48.012;7.862;2023-03-25T08:40:17;13.00;99.90
12303;DHT22;6214;48.012;7.862;2023-03-25T08:42:44;12.70;99.90
12303;DHT22;6214;48.012;7.862;2023-03-25T08:45:12;12.50;99.90
12303;DHT22;6214;48.012;7.862;2023-03-25T08:47:42;12.50;99.90
12303;DHT22;6214;48.012;7.862;2023-03-25T08:50:09;12.50;99.90
12303;DHT22;6214;48.012;7.862;2023-03-25T08:52:37;12.50;99.90
12303;DHT22;6214;48.012;7.862;2023-03-25T08:55:04;12.50;99.90
12303;DHT22;6214;48.012;7.862;2023-03-25T08:57:36;12.70;99.90
12303;DHT22;6214;48.012;7.862;2023-03-25T09:00:04;12.70;99.90
12303;DHT22;6214;48.012;7.862;2023-03-25T09:02:41;12.90;99.90
12303;DHT22;6214;48.012;7.862;2023-03-25T09:05:10;13.00;99.90
12303;DHT22;6214;48.012;7.862;2023-03-25T09:07:37;12.90;99.90
12303;DHT22;6214;48.012;7.862;2023-03-25T09:10:06;12.70;99.90
12303;DHT22;6214;48.012;7.862;2023-03-25T09:12:33;12.60;99.90
12303;DHT22;6214;48.012;7.862;2023-03-25T09:15:00;12.60;99.90
12303;DHT22;6214;48.012;7.862;2023-03-25T09:17:27;12.60;99.90
12303;DHT22;6214;48.012;7.862;2023-03-25T09:19:54;12.60;99.90
12303;DHT22;6214;48.012;7.862;2023-03-25T09:22:24;12.70;99.90
12303;DHT22;6214;48.012;7.862;2023-03-25T09:24:51;12.70;99.90
12303;DHT22;6214;48.012;7.862;2023-03-25T09:27:18;12.70;99.90
12303;DHT22;6214;48.012;7.862;2023-03-25T09:29:45;13.00;99.90
12303;DHT22;6214;48.012;7.862;2023-03-25T09:32:12;13.30;99.90
12303;DHT22;6214;48.012;7.862;2023-03-25T09:34:40;13.10;99.90
12303;DHT22;6214;48.012;7.862;2023-03-25T09:37:07;12.90;99.90
12303;DHT22;6214;48.012;7.862;2023-03-25T09:39:34;13.00;99.90
12303;DHT22;6214;48.012;7.862;2023-03-25T09:45:05;12.90;99.90
12303;DHT22;6214;48.012;7.862;2023-03-25T09:47:47;13.00;99.90
12303;DHT22;6214;48.012;7.862;2023-03-25T09:50:16;13.30;99.90
12303;DHT22;6214;48.012;7.862;2023-03-25T09:55:39;13.70;99.90
12303;DHT22;6214;48.012;7.862;2023-03-25T09:58:42;13.60;99.90
12303;DHT22;6214;48.012;7.862;2023-03-25T10:01:29;14.10;99.90
12303;DHT22;6214;48.012;7.862;2023-03-25T10:06:31;14.40;99.90
12303;DHT22;6214;48.012;7.862;2023-03-25T10:17:34;15.70;99.90
12303;DHT22;6214;48.012;7.862;2023-03-25T10:20:11;15.80;99.90
12303;DHT22;6214;48.012;7.862;2023-03-25T10:22:55;15.90;99.90
12303;DHT22;6214;48.012;7.862;2023-03-25T10:25:29;16.10;99.90
12303;DHT22;6214;48.012;7.862;2023-03-25T10:27:59;16.50;99.90
12303;DHT22;6214;48.012;7.862;2023-03-25T10:30:31;16.70;99.90
12303;DHT22;6214;48.012;7.862;2023-03-25T10:33:11;17.00;99.90
12303;DHT22;6214;48.012;7.862;2023-03-25T10:35:46;17.60;99.90
12303;DHT22;6214;48.012;7.862;2023-03-25T10:38:20;17.50;99.90
12303;DHT22;6214;48.012;7.862;2023-03-25T10:43:36;17.50;99.90
12303;DHT22;6214;48.012;7.862;2023-03-25T10:48:55;16.70;99.90
12303;DHT22;6214;48.012;7.862;2023-03-25T10:51:26;16.60;99.90
12303;DHT22;6214;48.012;7.862;2023-03-25T10:53:53;16.40;99.90
12303;DHT22;6214;48.012;7.862;2023-03-25T10:56:34;16.60;99.90
12303;DHT22;6214;48.012;7.862;2023-03-25T10:59:31;16.40;99.90
12303;DHT22;6214;48.012;7.862;2023-03-25T11:02:18;16.50;99.90
12303;DHT22;6214;48.012;7.862;2023-03-25T11:04:49;16.70;99.90
12303;DHT22;6214;48.012;7.862;2023-03-25T11:07:24;16.70;99.90
12303;DHT22;6214;48.012;7.862;2023-03-25T11:09:52;16.70;99.90
12303;DHT22;6214;48.012;7.862;2023-03-25T11:12:20;16.70;99.90
12303;DHT22;6214;48.012;7.862;2023-03-25T11:15:13;16.70;99.90
12303;DHT22;6214;48.012;7.862;2023-03-25T11:17:41;16.40;99.90
12303;DHT22;6214;48.012;7.862;2023-03-25T11:20:17;16.40;99.90
12303;DHT22;6214;48.012;7.862;2023-03-25T11:22:48;16.50;99.90
12303;DHT22;6214;48.012;7.862;2023-03-25T11:25:39;16.70;99.90
12303;DHT22;6214;48.012;7.862;2023-03-25T11:28:18;16.70;99.90
12303;DHT22;6214;48.012;7.862;2023-03-25T11:31:13;17.00;99.90
12303;DHT22;6214;48.012;7.862;2023-03-25T11:33:46;17.60;99.90
12303;DHT22;6214;48.012;7.862;2023-03-25T11:36:27;17.50;99.90
12303;DHT22;6214;48.012;7.862;2023-03-25T11:41:41;16.80;99.90
12303;DHT22;6214;48.012;7.862;2023-03-25T11:44:39;16.80;99.90
12303;DHT22;6214;48.012;7.862;2023-03-25T11:47:07;16.70;99.90
12303;DHT22;6214;48.012;7.862;2023-03-25T11:49:37;16.40;99.90
12303;DHT22;6214;48.012;7.862;2023-03-25T11:52:13;16.40;99.90
12303;DHT22;6214;48.012;7.862;2023-03-25T11:54:43;16.20;99.90
12303;DHT22;6214;48.012;7.862;2023-03-25T11:57:19;15.80;99.90
12303;DHT22;6214;48.012;7.862;2023-03-25T11:59:49;15.60;99.90
12303;DHT22;6214;48.012;7.862;2023-03-25T12:02:28;15.50;99.90
12303;DHT22;6214;48.012;7.862;2023-03-25T12:05:00;15.50;99.90
12303;DHT22;6214;48.012;7.862;2023-03-25T12:07:28;15.40;99.90
12303;DHT22;6214;48.012;7.862;2023-03-25T12:10:03;15.70;99.90
12303;DHT22;6214;48.012;7.862;2023-03-25T12:21:05;16.60;99.90
12303;DHT22;6214;48.012;7.862;2023-03-25T12:26:10;16.20;99.90
12303;DHT22;6214;48.012;7.862;2023-03-25T12:28:45;16.20;99.90
12303;DHT22;6214;48.012;7.862;2023-03-25T12:40:13;15.90;99.90
12303;DHT22;6214;48.012;7.862;2023-03-25T12:51:40;15.90;99.90
12303;DHT22;6214;48.012;7.862;2023-03-25T13:03:14;16.10;99.90
12303;DHT22;6214;48.012;7.862;2023-03-25T13:05:47;16.50;99.90
12303;DHT22;6214;48.012;7.862;2023-03-25T13:11:06;16.00;99.90
12303;DHT22;6214;48.012;7.862;2023-03-25T13:13:35;15.50;99.90
12303;DHT22;6214;48.012;7.862;2023-03-25T13:16:10;15.70;99.90
12303;DHT22;6214;48.012;7.862;2023-03-25T13:18:59;15.40;99.90
12303;DHT22;6214;48.012;7.862;2023-03-25T13:21:40;15.30;99.90
12303;DHT22;6214;48.012;7.862;2023-03-25T13:26:59;15.10;99.90
12303;DHT22;6214;48.012;7.862;2023-03-25T13:29:30;14.50;99.90
12303;DHT22;6214;48.012;7.862;2023-03-25T13:32:04;14.10;99.90
12303;DHT22;6214;48.012;7.862;2023-03-25T13:34:50;14.40;99.90
12303;DHT22;6214;48.012;7.862;2023-03-25T13:37:45;14.60;99.90
12303;DHT22;6214;48.012;7.862;2023-03-25T13:40:36;14.50;99.90
12303;DHT22;6214;48.012;7.862;2023-03-25T13:45:50;14.60;99.90
12303;DHT22;6214;48.012;7.862;2023-03-25T13:51:02;14.60;99.90
12303;DHT22;6214;48.012;7.862;2023-03-25T14:10:10;14.70;99.90
12303;DHT22;6214;48.012;7.862;2023-03-25T14:13:03;14.80;99.90
12303;DHT22;6214;48.012;7.862;2023-03-25T14:15:35;14.80;99.90
12303;DHT22;6214;48.012;7.862;2023-03-25T14:18:04;14.90;99.90
12303;DHT22;6214;48.012;7.862;2023-03-25T14:20:34;14.80;99.90
12303;DHT22;6214;48.012;7.862;2023-03-25T14:23:10;15.00;99.90
12303;DHT22;6214;48.012;7.862;2023-03-25T14:25:41;14.90;99.90
12303;DHT22;6214;48.012;7.862;2023-03-25T14:28:18;15.00;99.90
12303;DHT22;6214;48.012;7.862;2023-03-25T14:31:16;15.10;99.90
12303;DHT22;6214;48.012;7.862;2023-03-25T14:42:02;15.10;99.90
12303;DHT22;6214;48.012;7.862;2023-03-25T14:44:34;15.30;99.90
12303;DHT22;6214;48.012;7.862;2023-03-25T14:49:49;15.70;99.90
12303;DHT22;6214;48.012;7.862;2023-03-25T14:52:41;15.90;99.90
12303;DHT22;6214;48.012;7.862;2023-03-25T14:55:25;15.70;99.90
12303;DHT22;6214;48.012;7.862;2023-03-25T15:00:42;15.40;99.90
12303;DHT22;6214;48.012;7.862;2023-03-25T15:03:13;15.50;99.90
12303;DHT22;6214;48.012;7.862;2023-03-25T15:05:44;15.50;99.90
12303;DHT22;6214;48.012;7.862;2023-03-25T15:09:09;15.40;99.90
12303;DHT22;6214;48.012;7.862;2023-03-25T15:11:14;15.20;99.90
12303;DHT22;6214;48.012;7.862;2023-03-25T15:13:47;15.20;99.90
12303;DHT22;6214;48.012;7.862;2023-03-25T15:16:31;15.10;99.90
12303;DHT22;6214;48.012;7.862;2023-03-25T15:19:07;15.00;99.90
12303;DHT22;6214;48.012;7.862;2023-03-25T15:22:20;15.00;99.90
12303;DHT22;6214;48.012;7.862;2023-03-25T15:24:51;14.90;99.90
12303;DHT22;6214;48.012;7.862;2023-03-25T15:52:32;14.80;99.90
12303;DHT22;6214;48.012;7.862;2023-03-25T15:57:47;14.40;99.90
12303;DHT22;6214;48.012;7.862;2023-03-25T16:01:02;14.60;99.90
12303;DHT22;6214;48.012;7.862;2023-03-25T16:03:23;14.80;99.90
12303;DHT22;6214;48.012;7.862;2023-03-25T16:05:58;14.80;99.90
12303;DHT22;6214;48.012;7.862;2023-03-25T16:08:36;14.40;99.90
12303;DHT22;6214;48.012;7.862;2023-03-25T16:13:47;14.00;99.90
12303;DHT22;6214;48.012;7.862;2023-03-25T16:16:15;13.80;99.90
12303;DHT22;6214;48.012;7.862;2023-03-25T16:18:45;13.80;99.90
12303;DHT22;6214;48.012;7.862;2023-03-25T16:21:13;13.80;99.90
12303;DHT22;6214;48.012;7.862;2023-03-25T16:23:41;13.90;99.90
12303;DHT22;6214;48.012;7.862;2023-03-25T16:26:11;14.10;99.90
12303;DHT22;6214;48.012;7.862;2023-03-25T16:28:42;14.00;99.90
12303;DHT22;6214;48.012;7.862;2023-03-25T16:31:29;13.90;99.90
12303;DHT22;6214;48.012;7.862;2023-03-25T16:34:13;14.00;99.90
12303;DHT22;6214;48.012;7.862;2023-03-25T16:36:45;14.20;99.90
12303;DHT22;6214;48.012;7.862;2023-03-25T16:39:15;14.60;99.90
12303;DHT22;6214;48.012;7.862;2023-03-25T16:41:47;14.60;99.90
12303;DHT22;6214;48.012;7.862;2023-03-25T16:44:19;14.50;99.90
12303;DHT22;6214;48.012;7.862;2023-03-25T16:46:48;14.30;99.90
12303;DHT22;6214;48.012;7.862;2023-03-25T16:49:26;14.30;99.90
12303;DHT22;6214;48.012;7.862;2023-03-25T16:51:56;14.30;99.90
12303;DHT22;6214;48.012;7.862;2023-03-25T16:54:37;14.30;99.90
12303;DHT22;6214;48.012;7.862;2023-03-25T16:57:36;14.20;99.90
12303;DHT22;6214;48.012;7.862;2023-03-25T17:00:16;14.10;99.90
12303;DHT22;6214;48.012;7.862;2023-03-25T17:02:45;14.20;99.90
12303;DHT22;6214;48.012;7.862;2023-03-25T17:07:43;14.20;99.90
12303;DHT22;6214;48.012;7.862;2023-03-25T17:10:31;14.20;99.90
12303;DHT22;6214;48.012;7.862;2023-03-25T17:13:06;14.00;99.90
12303;DHT22;6214;48.012;7.862;2023-03-25T17:15:34;14.00;99.90
12303;DHT22;6214;48.012;7.862;2023-03-25T17:18:04;13.90;99.90
12303;DHT22;6214;48.012;7.862;2023-03-25T17:20:36;13.90;99.90
12303;DHT22;6214;48.012;7.862;2023-03-25T17:26:12;14.10;99.90
12303;DHT22;6214;48.012;7.862;2023-03-25T17:28:41;14.10;99.90
12303;DHT22;6214;48.012;7.862;2023-03-25T17:34:06;14.20;99.90
12303;DHT22;6214;48.012;7.862;2023-03-25T17:36:36;14.20;99.90
12303;DHT22;6214;48.012;7.862;2023-03-25T17:39:15;14.20;99.90
12303;DHT22;6214;48.012;7.862;2023-03-25T17:41:43;14.10;99.90
12303;DHT22;6214;48.012;7.862;2023-03-25T17:44:15;14.00;99.90
12303;DHT22;6214;48.012;7.862;2023-03-25T17:46:43;13.90;99.90
12303;DHT22;6214;48.012;7.862;2023-03-25T17:49:15;13.80;99.90
12303;DHT22;6214;48.012;7.862;2023-03-25T17:51:43;13.80;99.90
12303;DHT22;6214;48.012;7.862;2023-03-25T17:54:10;13.70;99.90
12303;DHT22;6214;48.012;7.862;2023-03-25T17:56:37;13.90;99.90
12303;DHT22;6214;48.012;7.862;2023-03-25T17:59:11;13.80;99.90
12303;DHT22;6214;48.012;7.862;2023-03-25T18:01:38;13.80;99.90
12303;DHT22;6214;48.012;7.862;2023-03-25T18:04:05;13.70;99.90
12303;DHT22;6214;48.012;7.862;2023-03-25T18:06:32;13.60;99.90
12303;DHT22;6214;48.012;7.862;2023-03-25T18:08:59;13.50;99.90
12303;DHT22;6214;48.012;7.862;2023-03-25T18:11:26;13.50;99.90
12303;DHT22;6214;48.012;7.862;2023-03-25T18:13:53;13.50;99.90
12303;DHT22;6214;48.012;7.862;2023-03-25T18:16:21;13.40;99.90
12303;DHT22;6214;48.012;7.862;2023-03-25T18:18:48;13.40;99.90
12303;DHT22;6214;48.012;7.862;2023-03-25T18:21:16;13.40;99.90
12303;DHT22;6214;48.012;7.862;2023-03-25T18:23:43;13.50;99.90
12303;DHT22;6214;48.012;7.862;2023-03-25T18:26:16;13.50;99.90
12303;DHT22;6214;48.012;7.862;2023-03-25T18:28:44;13.50;99.90
12303;DHT22;6214;48.012;7.862;2023-03-25T18:31:16;13.50;99.90
12303;DHT22;6214;48.012;7.862;2023-03-25T18:33:45;13.60;99.90
12303;DHT22;6214;48.012;7.862;2023-03-25T18:36:13;13.40;99.90
12303;DHT22;6214;48.012;7.862;2023-03-25T18:38:41;13.40;99.90
12303;DHT22;6214;48.012;7.862;2023-03-25T18:41:10;13.50;99.90
12303;DHT22;6214;48.012;7.862;2023-03-25T18:43:43;13.50;99.90
12303;DHT22;6214;48.012;7.862;2023-03-25T18:46:11;13.50;99.90
12303;DHT22;6214;48.012;7.862;2023-03-25T18:48:39;13.50;99.90
12303;DHT22;6214;48.012;7.862;2023-03-25T18:51:09;13.50;99.90
12303;DHT22;6214;48.012;7.862;2023-03-25T18:53:36;13.50;99.90
12303;DHT22;6214;48.012;7.862;2023-03-25T18:56:03;13.50;99.90
12303;DHT22;6214;48.012;7.862;2023-03-25T18:58:32;13.50;99.90
12303;DHT22;6214;48.012;7.862;2023-03-25T19:01:01;13.40;99.90
12303;DHT22;6214;48.012;7.862;2023-03-25T19:03:28;13.40;99.90
12303;DHT22;6214;48.012;7.862;2023-03-25T19:06:12;13.30;99.90
12303;DHT22;6214;48.012;7.862;2023-03-25T19:08:40;13.20;99.90
12303;DHT22;6214;48.012;7.862;2023-03-25T19:11:09;13.10;99.90
12303;DHT22;6214;48.012;7.862;2023-03-25T19:13:49;13.20;99.90
12303;DHT22;6214;48.012;7.862;2023-03-25T19:16:16;13.10;99.90
12303;DHT22;6214;48.012;7.862;2023-03-25T19:18:43;13.20;99.90
12303;DHT22;6214;48.012;7.862;2023-03-25T19:21:14;13.20;99.90
12303;DHT22;6214;48.012;7.862;2023-03-25T19:23:41;13.20;99.90